Albert J Ellis Airport
KOAJ : rendu visible

Aérodrome :











RETROUVEZ-NOUS SUR...

 
LOGIN :

S'inscrire | Disclaimer

   EN    FR    IT 

 









Légende :    VFR   VFR Marginal   IFR   IFR Intensif   IFR Très Intensif
Visi : 
Plafond : 
>= 8 km
>= 3000ft
5 à 8 km
1000 à 3000 ft
1500m à 5 km
500 à 1000 ft
800 à 1500m
200 à 500 ft
< 800m
< 200 ft
Symboles :   Orages  Brouillard  Fortes neiges  Fortes précipitations  Vent > 20 kt






- Altitude de l'aérodrome : 94 ft


KOAJ - Albert J Ellis

DERNIER METAR :
  • 040156Z AUTO 09010G20KT 8SM -RA FEW008 BKN020 OVC040 25/24 A2985 RMK AO2 PRESFR SLP110 P0017 T02500239

METARs EXPIRÉS :
  • 040147Z 08015G21KT 3SM RA BR SCT008 BKN017 OVC048 25/24 A2986 RMK AO2 CIG 012V021 P0016
  • 040141Z 07015G21KT 040V100 2 1/2SM +RA BR SCT012 BKN024 OVC047 25/24 A2987 RMK AO2 P0013
  • 040056Z 04008KT 10SM -RA FEW024 BKN070 OVC085 25/24 A2989 RMK AO2 RAE2357B21 PRESFR SLP123 P0001 T02500244
  • 040049Z 05008KT 9SM -RA SCT024 BKN038 OVC080 25/24 A2990 RMK AO2 RAE2357B21 P0000
  • 040032Z 06008KT 10SM -RA BKN022 BKN035 OVC065 25/24 A2992 RMK AO2 RAE2357B21 P0000
  • 032356Z 05007KT 10SM -RA FEW021 SCT036 25/24 A2993 RMK AO2 SLP135 P0001 60001 T02500244 10300 20250 56019

TAF KOAJ
Valide du 04 à 00h jusqu'au 05 à 00h UTC


040000Z 0400/0424 10011G19KT P6SM VCTS OVC050CB
TEMPO 0402/0406 2SM TSRA BKN008CB
FM040600 14035G52KT 3SM +SHRA VCTS SCT008 OVC015CB
FM041100 24018G25KT 5SM +SHRA VCTS SCT008 OVC025CB
FM041500 25011G18KT P6SM BKN035 AMD LTD TO CLD VIS AND WIND
FIR KZDC / Amérique du Nord



MET'MAP, la Météo Aéronautique d'un coup d'oeil ! - Copyright ORBIFLY Décembre 2007 - Disclaimer

ORBIFLY MET'MAP TEAM :

Programmation & Développement : Alexandra Zaïnal
Sur une idée originale de : Baudouin d'Aumeries
Assistance à la programmation : Marc-Olivier Méhu
Soutien technique & logistique : Manuel Goepfert

Contact : metmap@orbifly.com




SOURCES & CREDITS :

   NOAA       Earth
Advisory